createdAt,value
2022-10-01T00:03:09.229Z,4.03
2022-10-01T00:08:25.685Z,2.83
2022-10-01T00:13:33.381Z,2.78
2022-10-01T00:18:40.206Z,2.67
2022-10-01T00:23:49.002Z,2.60
2022-10-01T00:28:58.153Z,3.53
2022-10-01T00:34:05.727Z,3.30
2022-10-01T00:39:14.578Z,4.03
2022-10-01T00:44:35.427Z,3.50
2022-10-01T00:49:41.248Z,3.90
2022-10-01T00:54:52.465Z,4.80
2022-10-01T01:00:00.513Z,4.13
2022-10-01T01:05:06.880Z,4.15
2022-10-01T01:10:16.383Z,3.42
2022-10-01T01:15:26.573Z,2.45
2022-10-01T01:20:54.177Z,2.45
2022-10-01T01:26:09.081Z,2.83
2022-10-01T01:31:19.722Z,2.28
2022-10-01T01:36:30.628Z,2.25
2022-10-01T01:41:38.890Z,2.25
2022-10-01T01:46:49.665Z,2.20
2022-10-01T01:51:59.905Z,2.95
2022-10-01T01:57:05.578Z,3.35
2022-10-01T02:02:15.309Z,2.45
2022-10-01T02:07:40.666Z,3.47
2022-10-01T02:12:53.908Z,2.15
2022-10-01T02:18:08.308Z,2.78
2022-10-01T02:23:16.844Z,5.30
2022-10-01T02:28:25.830Z,3.08
2022-10-01T02:33:36.558Z,3.50
2022-10-01T02:38:44.745Z,3.65
2022-10-01T02:43:54.551Z,2.70
2022-10-01T02:49:03.151Z,5.85
2022-10-01T02:54:13.407Z,2.60
2022-10-01T02:59:18.724Z,2.45
2022-10-01T03:04:27.050Z,2.40
2022-10-01T03:09:32.090Z,5.95
2022-10-01T03:14:38.312Z,10.02
2022-10-01T03:19:46.140Z,2.30
2022-10-01T03:24:51.186Z,2.00
2022-10-01T03:29:56.276Z,1.92
2022-10-01T03:35:04.040Z,2.15
2022-10-01T03:40:10.459Z,2.33
2022-10-01T03:45:15.862Z,2.20
2022-10-01T03:50:23.578Z,2.55
2022-10-01T03:55:28.842Z,2.88
2022-10-01T04:00:33.850Z,2.47
2022-10-01T04:05:41.520Z,2.88
2022-10-01T04:10:46.583Z,4.05
2022-10-01T04:15:51.758Z,3.83
2022-10-01T04:20:59.564Z,2.80
2022-10-01T04:26:04.955Z,2.40
2022-10-01T04:31:22.887Z,2.63
2022-10-01T04:36:31.330Z,2.50
2022-10-01T04:41:36.711Z,3.42
2022-10-01T04:46:42.029Z,4.32
2022-10-01T04:51:49.711Z,3.17
2022-10-01T04:56:54.756Z,2.80
2022-10-01T05:01:59.872Z,3.33
2022-10-01T05:07:07.552Z,2.72
2022-10-01T05:12:12.575Z,2.45
2022-10-01T05:17:20.631Z,2.00
2022-10-01T05:22:28.711Z,2.33
2022-10-01T05:27:36.586Z,3.17
2022-10-01T05:32:42.144Z,2.22
2022-10-01T05:37:49.779Z,2.22
2022-10-01T05:42:54.728Z,2.35
2022-10-01T05:48:00.599Z,2.70
2022-10-01T05:53:09.029Z,2.08
2022-10-01T05:58:15.701Z,2.63
2022-10-01T06:03:20.781Z,1.73
2022-10-01T06:08:28.918Z,1.95
2022-10-01T06:13:34.146Z,2.10
2022-10-01T06:18:39.195Z,1.70
2022-10-01T06:23:46.876Z,1.80
2022-10-01T06:28:53.174Z,1.50
2022-10-01T06:33:58.216Z,1.50
2022-10-01T06:39:06.250Z,1.58
2022-10-01T06:44:11.436Z,1.50
2022-10-01T06:49:20.712Z,2.85
2022-10-01T06:54:29.068Z,1.92
2022-10-01T06:59:35.953Z,1.58
2022-10-01T07:04:41.450Z,2.10
2022-10-01T07:09:48.999Z,1.88
2022-10-01T07:14:54.191Z,1.75
2022-10-01T07:20:02.029Z,1.65
2022-10-01T07:25:11.114Z,1.98
2022-10-01T07:30:16.075Z,1.55
2022-10-01T07:35:22.963Z,3.03
2022-10-01T07:40:30.825Z,2.20
2022-10-01T07:45:36.096Z,2.60
2022-10-01T07:50:41.228Z,3.20
2022-10-01T07:55:49.119Z,1.85
2022-10-01T08:00:58.690Z,1.92
2022-10-01T08:06:06.033Z,1.50
2022-10-01T08:11:15.283Z,1.95
2022-10-01T08:16:20.246Z,3.03
2022-10-01T08:21:28.524Z,1.55
2022-10-01T08:26:38.253Z,2.15
2022-10-01T08:31:43.291Z,1.85
2022-10-01T08:36:48.364Z,2.10
2022-10-01T08:42:00.900Z,2.13
2022-10-01T08:47:11.274Z,1.75
2022-10-01T08:52:21.243Z,2.25
2022-10-01T08:57:31.787Z,1.95
2022-10-01T09:02:38.426Z,2.28
2022-10-01T09:07:50.908Z,2.72
2022-10-01T09:13:11.431Z,1.73
2022-10-01T09:18:24.021Z,1.45
2022-10-01T09:23:31.568Z,1.80
2022-10-01T09:28:40.485Z,1.90
2022-10-01T09:33:46.889Z,3.00
2022-10-01T09:38:55.765Z,2.05
2022-10-01T09:44:04.047Z,1.85
2022-10-01T09:49:15.037Z,1.70
2022-10-01T09:54:32.555Z,2.75
2022-10-01T09:59:45.022Z,2.15
2022-10-01T10:04:50.118Z,2.42
2022-10-01T10:09:55.866Z,3.05
2022-10-01T10:15:10.762Z,2.50
2022-10-01T10:20:26.567Z,1.73
2022-10-01T10:25:31.576Z,2.20
2022-10-01T10:30:40.554Z,1.90
2022-10-01T10:35:46.647Z,2.38
2022-10-01T10:40:53.143Z,17.98
2022-10-01T10:46:01.639Z,5.68
2022-10-01T10:51:08.383Z,4.07
2022-10-01T10:56:23.034Z,2.28
2022-10-01T11:01:32.475Z,2.42
2022-10-01T11:06:38.613Z,1.88
2022-10-01T11:11:50.560Z,2.25
2022-10-01T11:17:14.847Z,2.28
2022-10-01T11:22:28.483Z,2.72
2022-10-01T11:27:39.805Z,1.80
2022-10-01T11:32:49.647Z,1.52
2022-10-01T11:38:22.225Z,1.33
2022-10-01T11:43:30.739Z,1.38
2022-10-01T11:49:06.721Z,1.52
2022-10-01T11:54:45.169Z,1.83
2022-10-01T11:59:57.987Z,1.73
2022-10-01T12:11:05.637Z,1.88
2022-10-01T12:16:28.060Z,1.15
2022-10-01T12:28:34.828Z,1.60
2022-10-01T12:34:23.432Z,1.42
2022-10-01T12:39:55.726Z,1.88
2022-10-01T12:45:44.766Z,1.50
2022-10-01T12:51:42.283Z,1.52
2022-10-01T13:20:12.183Z,1.80
2022-10-01T13:26:15.624Z,2.08
2022-10-01T13:31:26.190Z,1.45
2022-10-01T13:36:34.507Z,1.65
2022-10-01T13:41:42.685Z,1.55
2022-10-01T13:47:10.196Z,1.23
2022-10-01T13:52:22.547Z,2.97
2022-10-01T13:57:37.201Z,2.78
2022-10-01T14:02:46.351Z,2.88
2022-10-01T14:07:55.376Z,2.65
2022-10-01T14:13:19.559Z,3.20
2022-10-01T14:18:32.898Z,4.07
2022-10-01T14:23:41.035Z,2.38
2022-10-01T14:28:58.058Z,2.63
2022-10-01T14:34:25.018Z,3.17
2022-10-01T14:39:30.859Z,3.33
2022-10-01T14:44:42.046Z,3.00
2022-10-01T14:49:50.222Z,3.00
2022-10-01T14:55:02.824Z,1.98
2022-10-01T15:00:11.753Z,2.83
2022-10-01T15:05:24.279Z,2.70
2022-10-01T15:10:30.309Z,3.50
2022-10-01T15:15:37.783Z,3.05
2022-10-01T15:20:53.803Z,12.05
2022-10-01T15:26:00.599Z,4.72
2022-10-01T15:31:07.423Z,4.25
2022-10-01T15:36:18.670Z,4.32
2022-10-01T15:41:32.051Z,4.45
2022-10-01T15:46:38.150Z,4.97
2022-10-01T15:52:13.190Z,5.28
2022-10-01T15:57:23.147Z,5.45
2022-10-01T16:02:29.986Z,13.65
2022-10-01T16:07:39.618Z,5.00
2022-10-01T16:12:45.328Z,6.25
2022-10-01T16:17:57.037Z,6.30
2022-10-01T16:23:37.423Z,5.55
2022-10-01T16:28:43.275Z,5.78
2022-10-01T16:33:48.196Z,7.30
2022-10-01T16:38:57.585Z,13.55
2022-10-01T16:44:05.246Z,7.90
2022-10-01T16:49:14.456Z,13.80
2022-10-01T16:54:29.206Z,14.15
2022-10-01T16:59:36.852Z,14.10
2022-10-01T17:04:42.179Z,12.63
2022-10-01T17:09:49.831Z,16.02
2022-10-01T17:14:55.683Z,15.63
2022-10-01T17:20:00.707Z,13.35
2022-10-01T17:25:09.593Z,14.05
2022-10-01T17:30:14.993Z,5.95
2022-10-01T17:35:20.141Z,3.88
2022-10-01T17:40:27.868Z,4.03
2022-10-01T17:45:34.787Z,2.60
2022-10-01T17:50:44.904Z,2.55
2022-10-01T17:55:52.536Z,3.17
2022-10-01T18:00:57.587Z,8.25
2022-10-01T18:06:18.989Z,4.13
2022-10-01T18:11:27.683Z,2.25
2022-10-01T18:16:34.194Z,2.55
2022-10-01T18:21:39.457Z,2.25
2022-10-01T18:26:53.242Z,3.05
2022-10-01T18:32:06.449Z,2.50
2022-10-01T18:37:22.072Z,3.30
2022-10-01T18:42:34.579Z,2.35
2022-10-01T18:47:44.318Z,2.13
2022-10-01T18:53:03.142Z,2.33
2022-10-01T18:58:44.113Z,2.53
2022-10-01T19:04:26.261Z,3.00
2022-10-01T19:10:06.228Z,2.50
2022-10-01T19:15:23.071Z,3.33
2022-10-01T19:21:01.905Z,3.35
2022-10-01T19:37:32.767Z,2.78
2022-10-01T19:42:44.435Z,3.35
2022-10-01T19:48:06.576Z,3.50
2022-10-01T19:53:23.989Z,3.47
2022-10-01T19:58:30.648Z,2.53
2022-10-01T20:03:40.186Z,4.65
2022-10-01T20:09:15.929Z,3.75
2022-10-01T20:14:41.773Z,3.97
2022-10-01T20:19:51.348Z,4.72
2022-10-01T20:25:03.856Z,4.60
2022-10-01T20:30:18.160Z,5.80
2022-10-01T20:35:30.969Z,5.57
2022-10-01T20:51:25.316Z,3.88
2022-10-01T20:56:37.161Z,4.00
2022-10-01T21:01:48.348Z,4.82
2022-10-01T21:07:01.379Z,4.07
2022-10-01T21:12:20.241Z,3.75
2022-10-01T21:17:38.740Z,3.50
2022-10-01T21:22:57.267Z,3.25
2022-10-01T21:28:14.937Z,3.78
2022-10-01T21:33:26.014Z,3.55
2022-10-01T21:38:34.539Z,3.47
2022-10-01T21:43:56.489Z,3.97
2022-10-01T21:49:08.918Z,2.63
2022-10-01T21:54:41.689Z,3.38
2022-10-01T22:00:11.352Z,3.00
2022-10-01T22:05:24.748Z,3.28
2022-10-01T22:10:31.886Z,3.13
2022-10-01T22:15:41.640Z,2.95
2022-10-01T22:20:47.302Z,3.30
2022-10-01T22:25:56.176Z,2.15
2022-10-01T22:31:04.565Z,3.22
2022-10-01T22:36:13.375Z,2.85
2022-10-01T22:41:23.832Z,3.17
2022-10-01T22:46:56.666Z,2.33
2022-10-01T22:52:08.890Z,2.75
2022-10-01T22:57:28.362Z,2.92
2022-10-01T23:02:41.338Z,3.78
2022-10-01T23:07:51.044Z,3.50
2022-10-01T23:13:04.206Z,2.75
2022-10-01T23:18:23.098Z,2.42
2022-10-01T23:23:33.131Z,2.75
2022-10-01T23:28:45.523Z,2.10
2022-10-01T23:34:03.142Z,2.28
2022-10-01T23:39:24.545Z,2.22
2022-10-01T23:44:40.721Z,2.40
2022-10-01T23:49:54.600Z,2.60
2022-10-01T23:55:24.131Z,2.58
